Time;durP1;ratioP1;P1;durP2;ratioP2;P2;SDS_P1;SDS_P2;PMS_P1;PMS_P2;Temp;Humidity;BMP_temperature;BMP_pressure;BME280_temperature;BME280_humidity;BME280_pressure;Samples;Min_cycle;Max_cycle;Signal;HPM_P1;HPM_P2
2020/12/17 00:01:44;;;;;;;19.63;13.40;;;7.10;99.90;;;;;;5015614;28;20461;-69
2020/12/17 00:04:10;;;;;;;17.47;12.27;;;7.10;99.90;;;;;;5015187;28;20516;-69
2020/12/17 00:06:37;;;;;;;20.90;13.03;;;7.10;99.90;;;;;;5015908;28;20481;-70
2020/12/17 00:09:05;;;;;;;19.80;12.80;;;7.00;99.90;;;;;;5018751;28;20461;-69
2020/12/17 00:11:31;;;;;;;21.57;13.20;;;7.00;99.90;;;;;;5018555;28;20461;-70
2020/12/17 00:13:57;;;;;;;24.83;13.93;;;7.00;99.90;;;;;;5019048;28;20515;-59
2020/12/17 00:16:23;;;;;;;24.03;14.20;;;7.10;99.90;;;;;;5018869;28;20503;-59
2020/12/17 00:18:49;;;;;;;21.20;13.70;;;7.10;99.90;;;;;;5018373;28;20460;-59
2020/12/17 00:21:20;;;;;;;19.77;13.77;;;7.00;99.90;;;;;;5018552;28;20519;-59
2020/12/17 00:23:47;;;;;;;21.27;14.20;;;7.10;99.90;;;;;;5018172;28;20471;-59
2020/12/17 00:26:13;;;;;;;22.07;14.33;;;7.10;99.90;;;;;;5018756;28;20922;-70
2020/12/17 00:28:39;;;;;;;26.17;15.17;;;7.10;99.90;;;;;;5017931;28;20915;-69
2020/12/17 00:31:05;;;;;;;22.17;14.50;;;7.10;99.90;;;;;;5018407;28;20797;-70
2020/12/17 00:33:31;;;;;;;21.63;13.77;;;7.20;99.90;;;;;;5017540;28;20467;-69
2020/12/17 00:35:57;;;;;;;21.87;13.10;;;7.20;99.90;;;;;;5018463;28;20789;-70
2020/12/17 00:38:23;;;;;;;23.03;14.77;;;7.20;99.90;;;;;;5018188;28;20523;-70
2020/12/17 00:40:50;;;;;;;21.57;13.70;;;7.20;99.90;;;;;;5017760;28;20491;-70
2020/12/17 00:43:16;;;;;;;20.80;13.70;;;7.30;99.90;;;;;;5017339;28;20477;-70
2020/12/17 00:45:42;;;;;;;20.30;13.67;;;7.20;99.90;;;;;;5017094;28;20449;-69
2020/12/17 00:48:08;;;;;;;21.80;13.20;;;7.10;99.90;;;;;;5017527;28;20492;-69
2020/12/17 00:50:34;;;;;;;20.73;14.07;;;7.10;99.90;;;;;;5017513;28;20833;-70
2020/12/17 00:53:00;;;;;;;24.20;14.00;;;7.00;99.90;;;;;;5017139;28;20559;-70
2020/12/17 00:55:26;;;;;;;21.53;13.47;;;6.90;99.90;;;;;;5019287;28;20479;-70
2020/12/17 00:57:53;;;;;;;18.90;13.53;;;7.00;99.90;;;;;;5017956;28;20487;-69
2020/12/17 01:00:19;;;;;;;21.77;13.67;;;7.00;99.90;;;;;;5017060;28;20578;-70
2020/12/17 01:02:45;;;;;;;20.93;12.70;;;7.00;99.90;;;;;;5016683;28;20456;-69
2020/12/17 01:05:12;;;;;;;19.50;12.57;;;7.00;99.90;;;;;;5016760;28;20816;-70
2020/12/17 01:07:38;;;;;;;21.60;13.50;;;7.00;99.90;;;;;;5017806;28;20875;-70
2020/12/17 01:10:05;;;;;;;20.53;14.30;;;7.00;99.90;;;;;;5016984;28;20461;-70
2020/12/17 01:12:32;;;;;;;19.67;13.37;;;7.00;99.90;;;;;;5017376;28;20523;-70
2020/12/17 01:14:59;;;;;;;19.70;13.50;;;7.00;99.90;;;;;;5016539;28;20453;-68
2020/12/17 01:17:25;;;;;;;21.23;13.13;;;7.00;99.90;;;;;;5017080;28;20484;-70
2020/12/17 01:19:51;;;;;;;21.17;13.57;;;7.00;99.90;;;;;;5017469;28;20453;-70
2020/12/17 01:22:17;;;;;;;22.50;14.10;;;7.00;99.90;;;;;;5017141;28;20500;-70
2020/12/17 01:24:43;;;;;;;18.10;13.00;;;7.10;99.90;;;;;;5016272;28;20520;-70
2020/12/17 01:27:09;;;;;;;19.50;13.30;;;7.10;99.90;;;;;;5017223;28;20476;-70
2020/12/17 01:29:35;;;;;;;19.57;13.40;;;7.10;99.90;;;;;;5016388;28;20460;-70
2020/12/17 01:32:02;;;;;;;20.63;13.30;;;7.10;99.90;;;;;;5016492;28;20465;-70
2020/12/17 01:34:28;;;;;;;22.43;13.20;;;7.10;99.90;;;;;;5016641;28;20504;-71
2020/12/17 01:36:55;;;;;;;19.07;12.23;;;7.10;99.90;;;;;;5016457;28;20457;-70
2020/12/17 01:39:21;;;;;;;19.50;12.07;;;7.10;99.90;;;;;;5016224;28;20487;-71
2020/12/17 01:41:47;;;;;;;22.47;13.20;;;7.10;99.90;;;;;;5017174;28;20468;-70
2020/12/17 01:44:13;;;;;;;21.57;13.47;;;7.10;99.90;;;;;;5016406;28;20512;-70
2020/12/17 01:46:40;;;;;;;19.23;13.40;;;7.00;99.90;;;;;;5016705;28;20566;-71
2020/12/17 01:49:07;;;;;;;19.87;13.23;;;7.00;99.90;;;;;;5016423;28;20457;-69
2020/12/17 01:51:33;;;;;;;20.77;11.73;;;7.00;99.90;;;;;;5016147;28;20503;-69
2020/12/17 01:54:01;;;;;;;22.90;13.03;;;7.00;99.90;;;;;;5018066;28;20464;-70
2020/12/17 01:56:28;;;;;;;17.20;11.73;;;7.00;99.90;;;;;;5016234;28;20469;-68
2020/12/17 01:59:04;;;;;;;20.37;13.40;;;7.00;99.90;;;;;;5016136;28;20478;-69
2020/12/17 02:01:31;;;;;;;20.20;12.73;;;7.00;99.90;;;;;;5016400;28;20472;-69
2020/12/17 02:03:57;;;;;;;19.07;12.73;;;7.10;99.90;;;;;;5016793;28;20484;-69
2020/12/17 02:06:25;;;;;;;20.53;13.37;;;7.10;99.90;;;;;;5015679;28;20480;-69
2020/12/17 02:08:52;;;;;;;20.80;12.80;;;7.00;99.90;;;;;;5017048;28;20468;-69
2020/12/17 02:11:19;;;;;;;19.23;12.67;;;7.00;99.90;;;;;;5016617;28;20503;-69
2020/12/17 02:13:46;;;;;;;17.47;12.93;;;6.90;99.90;;;;;;5015908;28;20492;-68
2020/12/17 02:16:13;;;;;;;22.43;13.23;;;6.90;99.90;;;;;;5016113;28;20458;-70
2020/12/17 02:18:40;;;;;;;19.93;12.37;;;6.80;99.90;;;;;;5015410;28;20461;-67
2020/12/17 02:21:06;;;;;;;23.37;14.30;;;6.80;99.90;;;;;;5015682;28;20441;-69
2020/12/17 02:23:34;;;;;;;19.50;13.07;;;6.80;99.90;;;;;;5015836;28;20495;-70
2020/12/17 02:26:01;;;;;;;20.40;13.10;;;6.70;99.90;;;;;;5015896;28;20820;-69
2020/12/17 02:28:27;;;;;;;20.73;12.90;;;6.70;99.90;;;;;;5016090;28;20465;-69
2020/12/17 02:30:53;;;;;;;22.70;13.40;;;6.60;99.90;;;;;;5015785;28;20460;-68
2020/12/17 02:33:19;;;;;;;22.23;13.93;;;6.50;99.90;;;;;;5015970;28;20461;-70
2020/12/17 02:35:45;;;;;;;19.83;13.40;;;6.50;99.90;;;;;;5015255;28;20931;-69
2020/12/17 02:38:11;;;;;;;21.47;12.50;;;6.50;99.90;;;;;;5014787;28;20519;-70
2020/12/17 02:40:38;;;;;;;22.90;13.90;;;6.40;99.90;;;;;;5015490;28;20945;-68
2020/12/17 02:43:05;;;;;;;22.87;13.90;;;6.30;99.90;;;;;;5015593;28;20456;-69
2020/12/17 02:45:31;;;;;;;18.67;13.23;;;6.30;99.90;;;;;;5015267;28;20460;-70
2020/12/17 02:47:57;;;;;;;20.13;12.40;;;6.20;99.90;;;;;;5015830;28;20837;-70
2020/12/17 02:50:23;;;;;;;19.93;13.23;;;6.00;99.90;;;;;;5015477;28;20469;-70
2020/12/17 02:52:49;;;;;;;21.83;13.40;;;6.00;99.90;;;;;;5015421;28;20795;-70
2020/12/17 02:55:15;;;;;;;20.97;15.20;;;6.00;99.90;;;;;;5015236;28;20453;-70
2020/12/17 02:57:42;;;;;;;21.47;14.37;;;6.00;99.90;;;;;;5015476;28;20452;-69
2020/12/17 03:00:11;;;;;;;20.30;13.23;;;6.10;99.90;;;;;;5015467;28;20461;-70
2020/12/17 03:02:37;;;;;;;22.70;14.33;;;5.90;99.90;;;;;;5015482;28;20488;-70
2020/12/17 03:05:05;;;;;;;24.70;14.77;;;5.90;99.90;;;;;;5015206;28;20791;-69
2020/12/17 03:07:31;;;;;;;21.77;13.87;;;5.80;99.90;;;;;;5015056;28;20582;-70
2020/12/17 03:09:57;;;;;;;23.37;14.87;;;5.80;99.90;;;;;;5015466;28;20457;-70
2020/12/17 03:12:23;;;;;;;24.27;14.33;;;5.70;99.90;;;;;;5014933;28;20456;-69
2020/12/17 03:14:49;;;;;;;24.77;14.67;;;5.60;99.90;;;;;;5014920;28;20523;-70
2020/12/17 03:17:16;;;;;;;25.03;15.20;;;5.70;99.90;;;;;;5015612;28;20468;-70
2020/12/17 03:19:42;;;;;;;23.27;14.60;;;5.60;99.90;;;;;;5015264;28;20461;-68
2020/12/17 03:22:08;;;;;;;20.97;14.90;;;5.60;99.90;;;;;;5014963;28;20469;-70
2020/12/17 03:24:34;;;;;;;28.33;15.80;;;5.60;99.90;;;;;;5014468;28;20481;-70
2020/12/17 03:27:00;;;;;;;24.00;14.87;;;5.60;99.90;;;;;;5014989;28;20461;-70
2020/12/17 03:29:26;;;;;;;24.40;15.37;;;5.60;99.90;;;;;;5015170;28;20452;-69
2020/12/17 03:31:52;;;;;;;24.07;16.03;;;5.60;99.90;;;;;;5015069;28;20483;-70
2020/12/17 03:34:19;;;;;;;27.70;15.17;;;5.60;99.90;;;;;;5015145;28;20563;-70
2020/12/17 03:36:45;;;;;;;25.53;15.70;;;5.60;99.90;;;;;;5015480;28;20468;-70
2020/12/17 03:39:11;;;;;;;21.43;15.00;;;5.60;99.90;;;;;;5015411;28;20827;-70
2020/12/17 03:41:38;;;;;;;24.03;14.10;;;5.50;99.90;;;;;;5015199;28;20504;-69
2020/12/17 03:44:04;;;;;;;22.73;13.90;;;5.60;99.90;;;;;;5014898;28;20804;-70
2020/12/17 03:46:30;;;;;;;22.13;14.60;;;5.60;99.90;;;;;;5015086;28;20457;-70
2020/12/17 03:48:56;;;;;;;23.80;14.00;;;5.50;99.90;;;;;;5017286;28;20480;-69
2020/12/17 03:51:23;;;;;;;24.83;16.57;;;5.50;99.90;;;;;;5018640;28;20544;-69
2020/12/17 03:53:49;;;;;;;22.07;15.23;;;5.50;99.90;;;;;;5018494;28;20790;-70
2020/12/17 03:56:15;;;;;;;23.40;14.40;;;5.50;99.90;;;;;;5018381;28;20591;-69
2020/12/17 03:58:42;;;;;;;25.00;15.57;;;5.50;99.90;;;;;;5018436;28;20456;-70
2020/12/17 04:01:08;;;;;;;21.23;14.47;;;5.60;99.90;;;;;;5018342;28;20461;-71
2020/12/17 04:03:34;;;;;;;26.20;14.90;;;5.60;99.90;;;;;;5018585;28;20485;-70
2020/12/17 04:06:00;;;;;;;25.40;15.83;;;5.60;99.90;;;;;;5018143;28;20488;-70
2020/12/17 04:08:27;;;;;;;24.77;16.50;;;5.60;99.90;;;;;;5018168;28;20468;-70
2020/12/17 04:10:53;;;;;;;25.23;15.63;;;5.50;99.90;;;;;;5018798;28;20634;-70
2020/12/17 04:13:19;;;;;;;28.90;15.80;;;5.60;99.90;;;;;;5018004;28;20492;-69
2020/12/17 04:15:45;;;;;;;26.70;15.83;;;5.60;99.90;;;;;;5018097;28;20846;-70
2020/12/17 04:18:11;;;;;;;21.60;15.57;;;5.60;99.90;;;;;;5018576;28;20511;-70
2020/12/17 04:20:37;;;;;;;24.23;15.53;;;5.50;99.90;;;;;;5018051;28;20554;-70
2020/12/17 04:23:03;;;;;;;23.00;14.93;;;5.50;99.90;;;;;;5017947;28;20452;-69
2020/12/17 04:25:30;;;;;;;25.80;15.90;;;5.50;99.90;;;;;;5017967;28;20548;-70
2020/12/17 04:27:56;;;;;;;26.63;15.23;;;5.40;99.90;;;;;;5018157;28;20532;-70
2020/12/17 04:30:22;;;;;;;25.80;15.60;;;5.40;99.90;;;;;;5017779;28;20491;-69
2020/12/17 04:32:48;;;;;;;25.10;16.10;;;5.40;99.90;;;;;;5017766;28;20456;-69
2020/12/17 04:35:14;;;;;;;25.70;16.10;;;5.40;99.90;;;;;;5017337;28;20977;-69
2020/12/17 04:37:40;;;;;;;25.10;14.67;;;5.50;99.90;;;;;;5017857;28;20461;-68
2020/12/17 04:40:06;;;;;;;27.90;17.17;;;5.50;99.90;;;;;;5017783;28;20461;-69
2020/12/17 04:42:34;;;;;;;25.07;15.97;;;5.40;99.90;;;;;;5017246;28;20461;-70
2020/12/17 04:45:01;;;;;;;28.50;16.50;;;5.40;99.90;;;;;;5018058;28;20487;-69
2020/12/17 04:47:30;;;;;;;25.73;16.23;;;5.40;99.90;;;;;;5017657;28;20457;-68
2020/12/17 04:50:05;;;;;;;24.33;15.83;;;5.30;99.90;;;;;;5017727;28;20491;-69
2020/12/17 04:52:31;;;;;;;26.97;16.30;;;5.30;99.90;;;;;;5017767;28;20440;-69
2020/12/17 04:54:58;;;;;;;27.67;17.07;;;5.40;99.90;;;;;;5019961;28;20926;-69
2020/12/17 04:57:27;;;;;;;23.40;15.93;;;5.30;99.90;;;;;;5017676;28;20457;-69
2020/12/17 04:59:55;;;;;;;29.60;15.43;;;5.30;99.90;;;;;;5017277;28;20475;-69
2020/12/17 05:02:22;;;;;;;24.70;15.40;;;5.30;99.90;;;;;;5017590;28;20457;-69
2020/12/17 05:04:50;;;;;;;26.47;15.77;;;5.20;99.90;;;;;;5017133;28;20485;-68
2020/12/17 05:07:19;;;;;;;28.87;16.20;;;5.20;99.90;;;;;;5017695;28;20437;-69
2020/12/17 05:09:46;;;;;;;25.67;15.90;;;5.20;99.90;;;;;;5017453;28;20468;-69
2020/12/17 05:12:13;;;;;;;23.00;15.73;;;5.20;99.90;;;;;;5018336;28;20483;-70
2020/12/17 05:14:39;;;;;;;24.50;15.77;;;5.30;99.90;;;;;;5018402;28;20954;-69
2020/12/17 05:17:07;;;;;;;22.87;14.47;;;5.30;99.90;;;;;;5017271;28;20522;-69
2020/12/17 05:19:33;;;;;;;24.43;15.50;;;5.30;99.90;;;;;;5018068;28;20452;-70
2020/12/17 05:22:01;;;;;;;28.90;16.90;;;5.30;99.90;;;;;;5017949;28;20477;-69
2020/12/17 05:24:28;;;;;;;30.63;17.50;;;5.30;99.90;;;;;;5020162;28;20481;-65
2020/12/17 05:26:56;;;;;;;23.97;16.10;;;5.30;99.90;;;;;;5017997;28;20496;-66
2020/12/17 05:29:22;;;;;;;26.53;15.90;;;5.30;99.90;;;;;;5017798;28;20468;-68
2020/12/17 05:31:49;;;;;;;26.63;15.50;;;5.30;99.90;;;;;;5017504;28;20799;-66
2020/12/17 05:34:17;;;;;;;30.17;17.60;;;5.30;99.90;;;;;;5017935;28;20449;-67
2020/12/17 05:36:45;;;;;;;25.80;16.17;;;5.20;99.90;;;;;;5016936;28;20492;-65
2020/12/17 05:39:13;;;;;;;24.80;15.43;;;5.10;99.90;;;;;;5017826;28;20461;-66
2020/12/17 05:41:40;;;;;;;25.20;15.90;;;5.20;99.90;;;;;;5017754;28;20465;-67
2020/12/17 05:44:14;;;;;;;21.53;14.90;;;5.10;99.90;;;;;;5017109;28;20481;-67
2020/12/17 05:46:42;;;;;;;27.33;15.47;;;5.10;99.90;;;;;;5017436;28;20445;-66
2020/12/17 05:49:14;;;;;;;26.50;15.90;;;5.10;99.90;;;;;;5020363;28;20464;-68
2020/12/17 05:51:41;;;;;;;27.60;16.80;;;5.10;99.90;;;;;;5019386;28;20500;-65
2020/12/17 05:54:19;;;;;;;45.50;25.37;;;5.10;99.90;;;;;;5018272;28;20457;-65
2020/12/17 05:56:45;;;;;;;28.30;17.30;;;5.10;99.90;;;;;;5018268;28;20851;-63
2020/12/17 05:59:11;;;;;;;23.50;15.43;;;5.10;99.90;;;;;;5017394;28;20480;-67
2020/12/17 06:01:37;;;;;;;26.43;16.67;;;5.10;99.90;;;;;;5016479;28;20479;-66
2020/12/17 06:04:14;;;;;;;28.80;16.83;;;5.00;99.90;;;;;;5016489;28;20480;-67
2020/12/17 06:06:45;;;;;;;27.00;16.80;;;5.00;99.90;;;;;;5016145;28;20523;-66
2020/12/17 06:09:20;;;;;;;28.73;15.77;;;5.00;99.90;;;;;;5016777;28;20456;-66
2020/12/17 06:11:47;;;;;;;26.23;16.20;;;4.90;99.90;;;;;;5016778;28;20445;-66
2020/12/17 06:14:14;;;;;;;25.30;16.13;;;4.90;99.90;;;;;;5018249;28;20456;-68
2020/12/17 06:16:43;;;;;;;27.67;16.77;;;4.90;99.90;;;;;;5016458;28;20854;-66
2020/12/17 06:19:11;;;;;;;27.87;16.80;;;4.90;99.90;;;;;;5016737;28;20457;-65
2020/12/17 06:21:40;;;;;;;25.37;15.87;;;4.90;99.90;;;;;;5016557;28;20468;-66
2020/12/17 06:24:07;;;;;;;22.87;15.37;;;4.80;99.90;;;;;;5015918;28;20480;-66
2020/12/17 06:26:39;;;;;;;28.17;16.10;;;4.80;99.90;;;;;;5015844;28;20794;-67
2020/12/17 06:29:17;;;;;;;24.40;15.50;;;4.80;99.90;;;;;;5015708;28;20943;-66
2020/12/17 06:31:55;;;;;;;25.90;15.97;;;4.70;99.90;;;;;;5015727;28;20445;-65
2020/12/17 06:34:21;;;;;;;28.17;16.27;;;4.70;99.90;;;;;;5015644;28;20452;-66
2020/12/17 06:36:54;;;;;;;30.60;18.03;;;4.80;99.90;;;;;;5015556;28;20481;-66
2020/12/17 06:39:21;;;;;;;32.60;18.10;;;4.80;99.90;;;;;;5015569;28;20560;-65
2020/12/17 06:41:48;;;;;;;26.97;15.90;;;4.80;99.90;;;;;;5015604;28;20447;-66
2020/12/17 06:44:28;;;;;;;30.10;16.20;;;4.80;99.90;;;;;;5015362;28;20512;-66
2020/12/17 06:46:55;;;;;;;29.43;17.03;;;4.80;99.90;;;;;;5015560;28;20461;-66
2020/12/17 06:49:26;;;;;;;29.00;16.50;;;4.80;99.90;;;;;;5015373;28;20461;-65
2020/12/17 06:52:02;;;;;;;29.73;15.90;;;4.80;99.90;;;;;;5015023;28;20471;-66
2020/12/17 06:54:40;;;;;;;27.40;16.23;;;4.70;99.90;;;;;;5015372;28;20456;-65
2020/12/17 06:57:07;;;;;;;27.57;17.00;;;4.70;99.90;;;;;;5015934;28;20440;-66
2020/12/17 06:59:34;;;;;;;27.10;17.10;;;4.80;99.90;;;;;;5015176;28;20465;-65
2020/12/17 07:02:00;;;;;;;24.87;16.93;;;4.70;99.90;;;;;;5015444;28;20523;-64
2020/12/17 07:04:41;;;;;;;31.33;16.23;;;4.80;99.90;;;;;;5015307;28;20481;-66
2020/12/17 07:07:16;;;;;;;26.10;16.33;;;4.80;99.90;;;;;;5015446;28;20441;-65
2020/12/17 07:09:44;;;;;;;26.77;16.10;;;4.70;99.90;;;;;;5015167;28;20441;-65
2020/12/17 07:12:12;;;;;;;28.33;15.97;;;4.70;99.90;;;;;;5015111;28;20456;-66
2020/12/17 07:14:39;;;;;;;27.37;17.23;;;4.70;99.90;;;;;;5015819;28;20449;-66
2020/12/17 07:17:06;;;;;;;27.73;16.90;;;4.70;99.90;;;;;;5015613;28;20457;-66
2020/12/17 07:19:40;;;;;;;26.43;17.03;;;4.70;99.90;;;;;;5015189;28;20445;-66
2020/12/17 07:22:07;;;;;;;27.67;17.33;;;4.80;99.90;;;;;;5015272;28;20889;-67
2020/12/17 07:24:37;;;;;;;26.07;16.90;;;4.80;99.90;;;;;;5018195;28;20480;-67
2020/12/17 07:27:10;;;;;;;27.00;16.20;;;4.70;99.90;;;;;;5021143;28;20795;-68
2020/12/17 07:29:51;;;;;;;30.07;17.13;;;4.80;99.90;;;;;;5019711;28;20909;-70
2020/12/17 07:32:29;;;;;;;31.57;16.33;;;4.80;99.90;;;;;;5020131;28;20455;-69
2020/12/17 07:34:56;;;;;;;27.00;16.43;;;4.70;99.90;;;;;;5019419;28;20453;-68
2020/12/17 07:37:43;;;;;;;23.97;15.23;;;4.80;99.90;;;;;;5019279;28;20461;-70
2020/12/17 07:40:18;;;;;;;28.07;16.13;;;4.90;99.90;;;;;;5019139;28;20794;-65
2020/12/17 07:42:56;;;;;;;25.40;16.43;;;4.90;99.90;;;;;;5019053;28;20486;-64
2020/12/17 07:45:37;;;;;;;26.67;15.60;;;5.00;99.90;;;;;;5019161;28;20472;-66
2020/12/17 07:48:03;;;;;;;27.37;17.03;;;5.00;99.90;;;;;;5019687;28;20456;-64
2020/12/17 07:50:36;;;;;;;28.13;17.57;;;5.00;99.90;;;;;;5019043;28;20760;-65
2020/12/17 07:53:23;;;;;;;32.27;16.30;;;5.10;99.90;;;;;;5018625;28;20445;-65
2020/12/17 07:55:50;;;;;;;26.07;15.90;;;5.20;99.90;;;;;;5019353;28;20448;-65
2020/12/17 07:58:17;;;;;;;29.10;16.27;;;5.20;99.90;;;;;;5018433;28;20766;-66
2020/12/17 08:00:43;;;;;;;28.03;16.43;;;5.30;99.90;;;;;;5018631;28;20779;-65
2020/12/17 08:03:10;;;;;;;26.90;15.43;;;5.30;99.90;;;;;;5019767;28;20460;-65
2020/12/17 08:05:36;;;;;;;27.67;16.43;;;5.30;99.90;;;;;;5019378;28;20493;-61
2020/12/17 08:08:03;;;;;;;32.63;15.30;;;5.20;99.90;;;;;;5018912;28;20464;-60
2020/12/17 08:10:29;;;;;;;26.70;16.30;;;5.30;99.90;;;;;;5019286;28;20981;-62
2020/12/17 08:19:36;;;;;;;21.87;13.70;;;5.30;99.90;;;;;;5015109;28;20448;-59
2020/12/17 08:25:43;;;;;;;25.33;15.30;;;5.40;99.90;;;;;;4956137;28;20965;-61
2020/12/17 08:28:10;;;;;;;27.33;15.47;;;5.40;99.90;;;;;;5018156;28;20506;-72
2020/12/17 08:30:37;;;;;;;27.87;15.70;;;5.40;99.90;;;;;;5018399;28;20465;-70
2020/12/17 08:33:04;;;;;;;34.30;16.93;;;5.50;99.90;;;;;;5018816;28;20457;-61
2020/12/17 08:35:30;;;;;;;26.40;16.10;;;5.60;99.90;;;;;;5017297;28;20515;-69
2020/12/17 08:37:56;;;;;;;21.97;15.00;;;5.60;99.90;;;;;;5018794;28;20511;-59
2020/12/17 08:40:27;;;;;;;26.37;15.10;;;5.50;99.90;;;;;;5019786;28;20483;-71
2020/12/17 08:43:01;;;;;;;27.53;15.77;;;5.40;99.90;;;;;;5019813;28;20786;-71
2020/12/17 08:45:28;;;;;;;29.50;16.77;;;5.40;99.90;;;;;;5018924;28;20469;-70
2020/12/17 08:47:57;;;;;;;26.60;15.63;;;5.40;99.90;;;;;;5019706;28;20461;-70
2020/12/17 08:50:26;;;;;;;28.53;17.00;;;5.40;99.90;;;;;;5018250;28;20950;-69
2020/12/17 08:52:52;;;;;;;28.00;16.07;;;5.50;99.90;;;;;;5018328;28;20472;-70
2020/12/17 08:55:19;;;;;;;25.73;15.87;;;5.50;99.90;;;;;;5018649;28;20456;-69
2020/12/17 08:57:45;;;;;;;25.17;15.20;;;5.50;99.90;;;;;;5018479;28;20468;-70
2020/12/17 09:00:17;;;;;;;24.80;14.23;;;5.60;99.90;;;;;;5018763;28;20471;-69
2020/12/17 09:02:44;;;;;;;23.87;14.13;;;5.70;99.90;;;;;;5018923;28;20461;-69
2020/12/17 09:05:12;;;;;;;24.40;15.30;;;5.80;99.90;;;;;;5017684;28;20541;-69
2020/12/17 09:07:46;;;;;;;23.63;14.60;;;5.80;99.90;;;;;;5017652;28;20536;-69
2020/12/17 09:10:14;;;;;;;22.00;14.77;;;5.90;99.90;;;;;;5018075;28;20441;-59
2020/12/17 09:12:41;;;;;;;21.23;13.30;;;6.00;99.90;;;;;;5017620;28;20463;-60
2020/12/17 09:15:08;;;;;;;26.43;15.07;;;6.00;99.90;;;;;;5018459;28;20467;-60
2020/12/17 09:17:38;;;;;;;24.27;15.00;;;6.10;99.90;;;;;;5018229;28;20457;-65
2020/12/17 09:20:15;;;;;;;23.70;12.97;;;6.10;99.90;;;;;;5017978;28;20460;-69
2020/12/17 09:22:42;;;;;;;22.23;14.40;;;6.20;99.90;;;;;;5018735;28;20508;-69
2020/12/17 09:25:08;;;;;;;25.03;14.77;;;6.20;99.90;;;;;;5018013;28;20485;-59
2020/12/17 09:27:36;;;;;;;26.33;14.30;;;6.20;99.90;;;;;;5018262;28;20457;-60
2020/12/17 09:30:08;;;;;;;20.60;12.13;;;6.30;99.90;;;;;;5018912;28;20461;-60
2020/12/17 09:32:35;;;;;;;23.63;12.83;;;6.30;99.90;;;;;;5017512;28;20468;-60
2020/12/17 09:35:10;;;;;;;21.80;13.00;;;6.40;99.90;;;;;;5018400;28;20477;-59
2020/12/17 09:37:37;;;;;;;23.13;13.63;;;6.20;99.90;;;;;;5018642;28;20448;-61
2020/12/17 09:40:07;;;;;;;25.97;13.87;;;6.20;99.90;;;;;;5020256;28;20457;-60
2020/12/17 09:42:33;;;;;;;22.77;12.87;;;6.20;99.90;;;;;;5018890;28;20461;-60
2020/12/17 09:45:12;;;;;;;21.33;12.70;;;6.20;99.90;;;;;;5018224;28;20481;-60
2020/12/17 09:47:38;;;;;;;23.33;13.60;;;6.20;99.90;;;;;;5018137;28;20467;-61
2020/12/17 09:50:14;;;;;;;24.63;14.83;;;6.30;99.90;;;;;;5019016;28;20456;-59
2020/12/17 09:52:40;;;;;;;23.30;12.93;;;6.20;99.90;;;;;;5018376;28;20456;-60
2020/12/17 09:55:07;;;;;;;23.03;14.43;;;6.30;99.90;;;;;;5017306;28;20453;-59
2020/12/17 09:57:38;;;;;;;20.90;13.47;;;6.30;99.90;;;;;;5017166;28;20564;-69
2020/12/17 10:00:06;;;;;;;23.03;14.23;;;6.30;99.90;;;;;;5018284;28;20511;-70
2020/12/17 10:02:32;;;;;;;20.00;14.10;;;6.30;99.90;;;;;;5017886;28;20461;-60
2020/12/17 10:04:58;;;;;;;22.67;13.80;;;6.30;99.90;;;;;;5017508;28;20802;-69
2020/12/17 10:07:24;;;;;;;22.33;13.00;;;6.40;99.90;;;;;;5019232;28;20523;-70
2020/12/17 10:09:50;;;;;;;20.83;13.80;;;6.40;99.90;;;;;;5016930;28;20468;-70
2020/12/17 10:12:18;;;;;;;22.63;14.63;;;6.50;99.90;;;;;;5016956;28;20796;-70
2020/12/17 10:14:44;;;;;;;22.87;14.23;;;6.50;99.90;;;;;;5016542;28;20457;-69
2020/12/17 10:17:10;;;;;;;22.50;13.37;;;6.70;99.90;;;;;;5017230;28;20522;-69
2020/12/17 10:19:36;;;;;;;26.27;13.63;;;6.70;99.90;;;;;;5016274;28;20456;-69
2020/12/17 10:22:02;;;;;;;23.27;14.93;;;6.60;99.90;;;;;;5016996;28;20792;-69
2020/12/17 10:24:28;;;;;;;25.90;13.10;;;6.70;99.90;;;;;;5017182;28;20485;-69
2020/12/17 10:26:55;;;;;;;22.23;12.50;;;6.70;99.90;;;;;;5016434;28;20477;-69
2020/12/17 10:29:22;;;;;;;19.37;12.63;;;6.80;99.90;;;;;;5018375;28;20457;-69
2020/12/17 10:31:48;;;;;;;21.07;13.50;;;6.90;99.90;;;;;;5017590;28;20533;-70
2020/12/17 10:34:15;;;;;;;23.87;13.23;;;6.90;99.90;;;;;;5018574;28;20518;-69
2020/12/17 10:36:45;;;;;;;24.20;13.47;;;6.90;99.90;;;;;;5016731;28;20979;-69
2020/12/17 10:39:12;;;;;;;21.57;14.03;;;7.00;99.90;;;;;;5016002;28;20460;-69
2020/12/17 10:41:39;;;;;;;32.80;15.10;;;7.10;99.90;;;;;;5016544;28;20852;-69
2020/12/17 10:44:06;;;;;;;26.90;14.93;;;7.10;99.90;;;;;;5015959;28;20477;-59
2020/12/17 10:46:35;;;;;;;20.40;12.87;;;7.20;99.90;;;;;;5015541;28;20492;-60
2020/12/17 10:49:03;;;;;;;23.13;12.97;;;7.30;99.90;;;;;;5015704;28;20519;-60
2020/12/17 10:51:29;;;;;;;22.20;12.47;;;7.20;99.90;;;;;;5016255;28;20460;-60
2020/12/17 10:53:55;;;;;;;23.20;13.57;;;7.20;99.90;;;;;;5018811;28;20887;-70
2020/12/17 10:56:22;;;;;;;24.30;13.57;;;7.20;99.90;;;;;;5020946;28;20461;-70
2020/12/17 10:58:49;;;;;;;25.63;13.27;;;7.10;99.90;;;;;;5021470;28;20519;-69
2020/12/17 11:01:19;;;;;;;18.90;13.00;;;7.00;99.90;;;;;;5018915;28;20457;-69
2020/12/17 11:03:46;;;;;;;26.30;13.50;;;7.10;99.90;;;;;;5016472;28;20522;-69
2020/12/17 11:06:14;;;;;;;17.93;12.07;;;7.10;99.90;;;;;;5016203;28;20489;-69
2020/12/17 11:08:40;;;;;;;19.70;12.80;;;7.20;99.90;;;;;;5016563;28;20801;-60
2020/12/17 11:11:07;;;;;;;20.03;14.10;;;7.30;99.90;;;;;;5017057;28;20464;-60
2020/12/17 11:13:33;;;;;;;21.60;13.77;;;7.40;99.90;;;;;;5015650;28;20457;-60
2020/12/17 11:15:59;;;;;;;20.97;13.20;;;7.40;99.90;;;;;;5016493;28;20465;-60
2020/12/17 11:19:16;;;;;;;21.27;12.97;;;7.40;99.90;;;;;;5015848;28;20468;-59
2020/12/17 11:21:43;;;;;;;21.10;12.77;;;7.50;99.90;;;;;;5001140;28;20461;-60
2020/12/17 11:24:10;;;;;;;25.70;12.80;;;7.60;99.90;;;;;;5015397;28;20484;-70
2020/12/17 11:26:41;;;;;;;18.73;12.40;;;7.70;99.90;;;;;;5015581;28;20496;-70
2020/12/17 11:29:07;;;;;;;20.03;13.23;;;7.80;99.90;;;;;;5016200;28;20441;-70
2020/12/17 11:31:33;;;;;;;18.73;12.60;;;7.80;99.90;;;;;;5014995;28;20977;-69
2020/12/17 11:34:00;;;;;;;20.50;12.90;;;7.80;99.90;;;;;;5016805;28;20457;-69
2020/12/17 11:36:26;;;;;;;20.37;12.40;;;7.90;99.90;;;;;;5016622;28;20452;-70
2020/12/17 11:38:53;;;;;;;19.00;12.00;;;7.90;99.90;;;;;;5016127;28;20465;-68
2020/12/17 11:41:19;;;;;;;19.17;11.70;;;8.00;99.90;;;;;;5016352;28;20464;-60
2020/12/17 11:43:45;;;;;;;17.33;11.27;;;8.00;99.90;;;;;;5016913;28;20934;-60
2020/12/17 11:46:11;;;;;;;15.13;10.67;;;8.10;99.90;;;;;;5016132;28;20492;-69
2020/12/17 11:48:37;;;;;;;14.60;10.37;;;8.20;99.90;;;;;;5016094;28;20549;-69
2020/12/17 11:51:04;;;;;;;14.60;10.70;;;8.20;99.90;;;;;;5015546;28;20456;-69
2020/12/17 11:53:30;;;;;;;15.43;10.50;;;8.30;99.90;;;;;;5018543;28;20456;-70
2020/12/17 11:55:58;;;;;;;18.20;11.07;;;8.40;99.90;;;;;;5019312;28;20453;-70
2020/12/17 11:58:24;;;;;;;19.73;11.30;;;8.50;99.90;;;;;;5018923;28;20953;-60
2020/12/17 12:00:50;;;;;;;16.53;10.07;;;8.60;99.90;;;;;;5017212;28;20515;-59
2020/12/17 12:03:17;;;;;;;25.00;10.93;;;8.70;99.90;;;;;;5019420;28;20775;-60
2020/12/17 12:05:43;;;;;;;14.60;9.87;;;9.10;99.90;;;;;;5016594;28;20488;-60
2020/12/17 12:08:09;;;;;;;15.77;10.67;;;9.60;99.90;;;;;;5019247;28;20461;-60
2020/12/17 12:10:35;;;;;;;13.50;8.90;;;9.90;99.90;;;;;;5023382;28;20460;-60
2020/12/17 12:13:02;;;;;;;13.43;9.30;;;10.30;99.90;;;;;;5023129;28;20461;-61
2020/12/17 12:15:28;;;;;;;18.57;10.43;;;10.40;99.90;;;;;;5022654;28;20467;-59
2020/12/17 12:17:54;;;;;;;15.50;10.43;;;10.30;99.90;;;;;;5021338;28;20486;-60
2020/12/17 12:20:20;;;;;;;15.63;10.97;;;10.40;99.90;;;;;;5020417;28;20452;-61
2020/12/17 12:22:46;;;;;;;14.20;9.83;;;10.70;99.90;;;;;;5019251;28;20457;-60
2020/12/17 12:25:12;;;;;;;16.00;10.73;;;10.90;99.90;;;;;;5021018;28;20849;-61
2020/12/17 12:27:39;;;;;;;16.20;10.27;;;10.90;99.90;;;;;;5019921;28;20479;-60
2020/12/17 12:30:05;;;;;;;15.33;10.10;;;11.10;99.90;;;;;;5018463;28;20487;-61
2020/12/17 12:32:32;;;;;;;16.27;10.60;;;11.10;99.90;;;;;;5018610;28;20906;-60
2020/12/17 12:34:58;;;;;;;15.53;10.20;;;11.20;99.90;;;;;;5019200;28;20845;-61
2020/12/17 12:37:24;;;;;;;12.30;8.63;;;11.40;99.90;;;;;;5017771;28;20488;-60
2020/12/17 12:39:51;;;;;;;19.00;10.40;;;11.60;99.90;;;;;;5020494;28;20468;-60
2020/12/17 12:42:17;;;;;;;13.67;9.73;;;12.10;99.90;;;;;;5019887;28;20544;-60
2020/12/17 12:44:43;;;;;;;11.90;9.23;;;12.20;99.90;;;;;;5018673;28;20556;-60
2020/12/17 12:47:10;;;;;;;17.23;9.60;;;12.70;99.90;;;;;;5017481;28;20933;-60
2020/12/17 12:49:36;;;;;;;14.00;10.33;;;13.10;99.90;;;;;;5017822;28;20480;-60